sensor_id;sensor_type;location;lat;lon;timestamp;pressure;altitude;pressure_sealevel;temperature;humidity
41947;BME280;27638;42.184;24.848;2023-04-01T00:01:54;99025.84;;;12.78;63.73
41947;BME280;27638;42.184;24.848;2023-04-01T00:04:20;99028.69;;;12.49;64.76
41947;BME280;27638;42.184;24.848;2023-04-01T00:06:46;99043.69;;;12.21;65.64
41947;BME280;27638;42.184;24.848;2023-04-01T00:09:13;99044.31;;;11.80;68.09
41947;BME280;27638;42.184;24.848;2023-04-01T00:11:39;99038.81;;;11.81;68.18
41947;BME280;27638;42.184;24.848;2023-04-01T00:14:06;99040.34;;;11.91;68.18
41947;BME280;27638;42.184;24.848;2023-04-01T00:16:32;99049.63;;;12.01;67.86
41947;BME280;27638;42.184;24.848;2023-04-01T00:18:58;99035.56;;;12.22;67.02
41947;BME280;27638;42.184;24.848;2023-04-01T00:21:25;99043.31;;;12.24;67.94
41947;BME280;27638;42.184;24.848;2023-04-01T00:23:51;99042.06;;;12.41;66.60
41947;BME280;27638;42.184;24.848;2023-04-01T00:26:16;99032.94;;;11.71;66.82
41947;BME280;27638;42.184;24.848;2023-04-01T00:28:44;99031.34;;;11.11;69.87
41947;BME280;27638;42.184;24.848;2023-04-01T00:31:14;99030.75;;;10.72;72.08
41947;BME280;27638;42.184;24.848;2023-04-01T00:33:40;99026.22;;;10.43;71.99
41947;BME280;27638;42.184;24.848;2023-04-01T00:36:11;99021.56;;;10.22;75.48
41947;BME280;27638;42.184;24.848;2023-04-01T00:38:38;99034.50;;;10.77;74.55
41947;BME280;27638;42.184;24.848;2023-04-01T00:41:04;99034.25;;;11.02;73.54
41947;BME280;27638;42.184;24.848;2023-04-01T00:43:31;99041.13;;;11.26;72.13
41947;BME280;27638;42.184;24.848;2023-04-01T00:45:56;99044.78;;;11.54;72.28
41947;BME280;27638;42.184;24.848;2023-04-01T00:48:25;99041.53;;;11.88;70.44
41947;BME280;27638;42.184;24.848;2023-04-01T00:50:55;99034.84;;;12.13;69.04
41947;BME280;27638;42.184;24.848;2023-04-01T00:53:23;99042.13;;;12.26;68.90
41947;BME280;27638;42.184;24.848;2023-04-01T00:55:55;99036.94;;;12.39;67.89
41947;BME280;27638;42.184;24.848;2023-04-01T00:58:24;99035.47;;;12.37;66.93
41947;BME280;27638;42.184;24.848;2023-04-01T01:00:53;99034.97;;;12.48;66.51
41947;BME280;27638;42.184;24.848;2023-04-01T01:03:20;99026.75;;;12.43;66.38
41947;BME280;27638;42.184;24.848;2023-04-01T01:11:43;99029.78;;;12.89;63.56
41947;BME280;27638;42.184;24.848;2023-04-01T01:14:19;99032.94;;;12.99;63.46
41947;BME280;27638;42.184;24.848;2023-04-01T01:23:36;99039.84;;;12.94;63.29
41947;BME280;27638;42.184;24.848;2023-04-01T01:34:01;99024.19;;;13.05;63.11
41947;BME280;27638;42.184;24.848;2023-04-01T01:36:33;99022.69;;;12.96;63.66
41947;BME280;27638;42.184;24.848;2023-04-01T01:39:02;99016.13;;;12.92;64.77
41947;BME280;27638;42.184;24.848;2023-04-01T01:41:29;99019.00;;;12.97;64.03
41947;BME280;27638;42.184;24.848;2023-04-01T01:43:56;99007.38;;;12.98;64.27
41947;BME280;27638;42.184;24.848;2023-04-01T01:46:26;99006.97;;;13.01;63.47
41947;BME280;27638;42.184;24.848;2023-04-01T01:48:53;99005.75;;;13.04;63.42
41947;BME280;27638;42.184;24.848;2023-04-01T01:51:21;99006.78;;;13.03;63.92
41947;BME280;27638;42.184;24.848;2023-04-01T01:53:48;98993.88;;;13.00;63.18
41947;BME280;27638;42.184;24.848;2023-04-01T01:56:13;98994.72;;;13.00;62.87
41947;BME280;27638;42.184;24.848;2023-04-01T01:58:43;98989.22;;;13.08;63.26
41947;BME280;27638;42.184;24.848;2023-04-01T02:01:35;98990.38;;;12.93;64.11
41947;BME280;27638;42.184;24.848;2023-04-01T02:03:59;98988.50;;;12.87;64.73
41947;BME280;27638;42.184;24.848;2023-04-01T02:06:26;98980.09;;;12.83;63.94
41947;BME280;27638;42.184;24.848;2023-04-01T02:08:59;98987.19;;;12.76;64.17
41947;BME280;27638;42.184;24.848;2023-04-01T02:11:53;98983.69;;;12.47;65.52
41947;BME280;27638;42.184;24.848;2023-04-01T02:14:26;98989.75;;;12.63;65.44
41947;BME280;27638;42.184;24.848;2023-04-01T02:17:07;98985.28;;;12.63;65.43
41947;BME280;27638;42.184;24.848;2023-04-01T02:19:53;98987.50;;;12.38;66.25
41947;BME280;27638;42.184;24.848;2023-04-01T02:22:31;98990.53;;;12.35;66.10
41947;BME280;27638;42.184;24.848;2023-04-01T02:25:02;99002.66;;;12.44;65.10
41947;BME280;27638;42.184;24.848;2023-04-01T02:27:30;99004.88;;;12.41;65.43
41947;BME280;27638;42.184;24.848;2023-04-01T02:29:55;99007.28;;;12.36;65.92
41947;BME280;27638;42.184;24.848;2023-04-01T02:32:21;98999.09;;;12.31;65.77
41947;BME280;27638;42.184;24.848;2023-04-01T02:34:47;98989.53;;;12.36;65.79
41947;BME280;27638;42.184;24.848;2023-04-01T02:37:13;98984.47;;;12.41;65.26
41947;BME280;27638;42.184;24.848;2023-04-01T02:39:39;98991.44;;;12.21;65.30
41947;BME280;27638;42.184;24.848;2023-04-01T02:42:05;98983.03;;;12.18;65.23
41947;BME280;27638;42.184;24.848;2023-04-01T02:44:31;98991.50;;;12.28;65.14
41947;BME280;27638;42.184;24.848;2023-04-01T02:46:56;98993.34;;;12.27;64.84
41947;BME280;27638;42.184;24.848;2023-04-01T02:49:22;98987.72;;;12.15;65.30
41947;BME280;27638;42.184;24.848;2023-04-01T02:51:47;98988.66;;;12.08;65.28
41947;BME280;27638;42.184;24.848;2023-04-01T02:54:13;98986.91;;;12.15;64.52
41947;BME280;27638;42.184;24.848;2023-04-01T02:56:38;98993.28;;;12.21;64.30
41947;BME280;27638;42.184;24.848;2023-04-01T02:59:04;98991.25;;;12.23;64.63
41947;BME280;27638;42.184;24.848;2023-04-01T03:01:29;98988.78;;;12.21;64.24
41947;BME280;27638;42.184;24.848;2023-04-01T03:03:55;98981.91;;;12.27;64.25
41947;BME280;27638;42.184;24.848;2023-04-01T03:06:20;98986.75;;;12.23;64.56
41947;BME280;27638;42.184;24.848;2023-04-01T03:08:46;98981.69;;;12.28;64.42
41947;BME280;27638;42.184;24.848;2023-04-01T03:11:11;98966.16;;;12.25;63.99
41947;BME280;27638;42.184;24.848;2023-04-01T03:13:37;98966.72;;;12.21;64.56
41947;BME280;27638;42.184;24.848;2023-04-01T03:16:03;98962.63;;;12.18;65.37
41947;BME280;27638;42.184;24.848;2023-04-01T03:18:29;98968.66;;;12.05;65.46
41947;BME280;27638;42.184;24.848;2023-04-01T03:20:54;98967.69;;;12.13;64.63
41947;BME280;27638;42.184;24.848;2023-04-01T03:23:20;98983.63;;;12.13;64.57
41947;BME280;27638;42.184;24.848;2023-04-01T03:25:46;98985.44;;;12.12;64.87
41947;BME280;27638;42.184;24.848;2023-04-01T03:28:12;98977.53;;;12.19;63.63
41947;BME280;27638;42.184;24.848;2023-04-01T03:30:38;98973.69;;;12.22;64.22
41947;BME280;27638;42.184;24.848;2023-04-01T03:33:04;98966.53;;;12.22;63.01
41947;BME280;27638;42.184;24.848;2023-04-01T03:35:30;98959.03;;;12.26;62.71
41947;BME280;27638;42.184;24.848;2023-04-01T03:37:55;98958.22;;;12.04;63.13
41947;BME280;27638;42.184;24.848;2023-04-01T03:40:22;98965.28;;;11.97;63.38
41947;BME280;27638;42.184;24.848;2023-04-01T03:42:47;98958.97;;;11.98;62.37
41947;BME280;27638;42.184;24.848;2023-04-01T03:45:13;98956.72;;;11.95;62.27
41947;BME280;27638;42.184;24.848;2023-04-01T03:47:39;98950.97;;;11.91;63.44
41947;BME280;27638;42.184;24.848;2023-04-01T03:50:06;98946.03;;;11.88;64.22
41947;BME280;27638;42.184;24.848;2023-04-01T03:52:32;98939.72;;;11.89;63.75
41947;BME280;27638;42.184;24.848;2023-04-01T03:54:58;98936.44;;;11.87;63.97
41947;BME280;27638;42.184;24.848;2023-04-01T03:57:23;98941.38;;;11.75;62.83
41947;BME280;27638;42.184;24.848;2023-04-01T03:59:49;98941.19;;;11.56;63.55
41947;BME280;27638;42.184;24.848;2023-04-01T04:02:14;98939.09;;;11.36;65.62
41947;BME280;27638;42.184;24.848;2023-04-01T04:04:40;98940.69;;;11.16;66.39
41947;BME280;27638;42.184;24.848;2023-04-01T04:07:06;98941.91;;;11.13;66.62
41947;BME280;27638;42.184;24.848;2023-04-01T04:09:32;98934.13;;;11.12;67.20
41947;BME280;27638;42.184;24.848;2023-04-01T04:11:58;98924.91;;;11.08;67.77
41947;BME280;27638;42.184;24.848;2023-04-01T04:14:24;98928.09;;;11.18;67.41
41947;BME280;27638;42.184;24.848;2023-04-01T04:16:49;98935.94;;;11.26;65.36
41947;BME280;27638;42.184;24.848;2023-04-01T04:19:15;98943.22;;;11.39;65.20
41947;BME280;27638;42.184;24.848;2023-04-01T04:21:41;98939.03;;;11.44;65.77
41947;BME280;27638;42.184;24.848;2023-04-01T04:24:06;98938.47;;;11.34;67.33
41947;BME280;27638;42.184;24.848;2023-04-01T04:26:32;98941.13;;;11.49;66.76
41947;BME280;27638;42.184;24.848;2023-04-01T04:28:57;98942.56;;;11.51;66.60
41947;BME280;27638;42.184;24.848;2023-04-01T04:31:24;98943.28;;;11.60;66.41
41947;BME280;27638;42.184;24.848;2023-04-01T04:33:51;98946.50;;;11.77;65.50
41947;BME280;27638;42.184;24.848;2023-04-01T04:36:17;98951.66;;;11.78;66.09
41947;BME280;27638;42.184;24.848;2023-04-01T04:38:43;98958.72;;;11.93;65.65
41947;BME280;27638;42.184;24.848;2023-04-01T04:41:16;98957.09;;;11.92;65.86
41947;BME280;27638;42.184;24.848;2023-04-01T04:43:49;98955.63;;;11.89;65.47
41947;BME280;27638;42.184;24.848;2023-04-01T04:46:16;98943.13;;;11.83;66.81
41947;BME280;27638;42.184;24.848;2023-04-01T04:48:41;98946.41;;;11.85;67.22
41947;BME280;27638;42.184;24.848;2023-04-01T04:51:13;98945.53;;;11.78;68.75
41947;BME280;27638;42.184;24.848;2023-04-01T04:53:39;98944.59;;;11.71;68.78
41947;BME280;27638;42.184;24.848;2023-04-01T04:56:05;98948.19;;;11.63;70.29
41947;BME280;27638;42.184;24.848;2023-04-01T04:58:30;98947.94;;;11.58;71.99
41947;BME280;27638;42.184;24.848;2023-04-01T05:00:56;98948.88;;;11.50;72.49
41947;BME280;27638;42.184;24.848;2023-04-01T05:03:21;98941.84;;;11.43;72.73
41947;BME280;27638;42.184;24.848;2023-04-01T05:05:52;98951.72;;;11.49;72.50
41947;BME280;27638;42.184;24.848;2023-04-01T05:08:18;98953.00;;;11.53;71.60
41947;BME280;27638;42.184;24.848;2023-04-01T05:10:43;98949.28;;;11.69;71.52
41947;BME280;27638;42.184;24.848;2023-04-01T05:13:09;98938.28;;;11.72;71.94
41947;BME280;27638;42.184;24.848;2023-04-01T05:15:37;98940.84;;;11.80;71.85
41947;BME280;27638;42.184;24.848;2023-04-01T05:18:03;98932.84;;;11.95;71.65
41947;BME280;27638;42.184;24.848;2023-04-01T05:20:28;98936.22;;;12.10;71.67
41947;BME280;27638;42.184;24.848;2023-04-01T05:22:57;98935.66;;;12.14;71.17
41947;BME280;27638;42.184;24.848;2023-04-01T05:25:23;98930.28;;;12.08;70.96
41947;BME280;27638;42.184;24.848;2023-04-01T05:27:48;98926.94;;;11.99;71.82
41947;BME280;27638;42.184;24.848;2023-04-01T05:30:14;98923.53;;;12.05;72.15
41947;BME280;27638;42.184;24.848;2023-04-01T05:32:39;98925.47;;;12.18;71.75
41947;BME280;27638;42.184;24.848;2023-04-01T05:35:05;98925.38;;;12.33;71.58
41947;BME280;27638;42.184;24.848;2023-04-01T05:37:33;98925.44;;;12.39;71.11
41947;BME280;27638;42.184;24.848;2023-04-01T05:39:59;98921.69;;;12.55;70.34
41947;BME280;27638;42.184;24.848;2023-04-01T05:42:25;98923.78;;;12.66;69.98
41947;BME280;27638;42.184;24.848;2023-04-01T05:44:50;98908.94;;;12.78;69.11
41947;BME280;27638;42.184;24.848;2023-04-01T05:47:16;98906.72;;;12.82;69.87
41947;BME280;27638;42.184;24.848;2023-04-01T05:49:41;98895.72;;;12.92;69.43
41947;BME280;27638;42.184;24.848;2023-04-01T05:52:07;98896.13;;;12.89;68.98
41947;BME280;27638;42.184;24.848;2023-04-01T05:54:32;98891.88;;;12.60;70.36
41947;BME280;27638;42.184;24.848;2023-04-01T05:56:58;98891.03;;;12.25;72.61
41947;BME280;27638;42.184;24.848;2023-04-01T05:59:23;98877.94;;;11.95;75.08
41947;BME280;27638;42.184;24.848;2023-04-01T06:01:49;98871.75;;;11.88;76.17
41947;BME280;27638;42.184;24.848;2023-04-01T06:04:17;98864.38;;;11.62;77.46
41947;BME280;27638;42.184;24.848;2023-04-01T06:06:43;98851.88;;;11.20;79.40
41947;BME280;27638;42.184;24.848;2023-04-01T06:09:28;98849.34;;;11.12;79.96
41947;BME280;27638;42.184;24.848;2023-04-01T06:14:44;98865.00;;;11.28;79.89
41947;BME280;27638;42.184;24.848;2023-04-01T06:30:30;98851.47;;;11.59;81.37
41947;BME280;27638;42.184;24.848;2023-04-01T06:33:24;98839.84;;;11.39;83.74
41947;BME280;27638;42.184;24.848;2023-04-01T06:41:11;98852.66;;;10.99;88.53
41947;BME280;27638;42.184;24.848;2023-04-01T06:44:41;98849.47;;;11.04;87.77
41947;BME280;27638;42.184;24.848;2023-04-01T06:49:36;98845.09;;;10.96;88.23
41947;BME280;27638;42.184;24.848;2023-04-01T06:54:55;98841.28;;;11.20;85.83
41947;BME280;27638;42.184;24.848;2023-04-01T06:57:30;98848.72;;;11.31;86.37
41947;BME280;27638;42.184;24.848;2023-04-01T07:00:00;98837.56;;;11.14;86.39
41947;BME280;27638;42.184;24.848;2023-04-01T07:02:59;98842.22;;;11.48;84.92
41947;BME280;27638;42.184;24.848;2023-04-01T07:05:30;98855.41;;;11.63;85.46
41947;BME280;27638;42.184;24.848;2023-04-01T07:07:58;98852.66;;;11.99;81.99
41947;BME280;27638;42.184;24.848;2023-04-01T07:13:22;98831.84;;;12.31;82.15
41947;BME280;27638;42.184;24.848;2023-04-01T07:18:46;98827.28;;;12.18;82.02
41947;BME280;27638;42.184;24.848;2023-04-01T07:21:40;98817.91;;;12.22;81.34
41947;BME280;27638;42.184;24.848;2023-04-01T07:24:14;98824.78;;;12.10;80.85
41947;BME280;27638;42.184;24.848;2023-04-01T07:26:42;98828.44;;;12.43;81.33
41947;BME280;27638;42.184;24.848;2023-04-01T07:29:13;98817.38;;;12.68;79.36
41947;BME280;27638;42.184;24.848;2023-04-01T07:32:04;98807.47;;;13.09;77.76
41947;BME280;27638;42.184;24.848;2023-04-01T07:34:45;98809.72;;;12.99;75.99
41947;BME280;27638;42.184;24.848;2023-04-01T07:37:34;98800.91;;;12.92;76.25
41947;BME280;27638;42.184;24.848;2023-04-01T07:50:46;98775.84;;;13.34;73.73
41947;BME280;27638;42.184;24.848;2023-04-01T07:53:25;98775.22;;;13.26;75.76
41947;BME280;27638;42.184;24.848;2023-04-01T08:06:42;98779.59;;;13.53;74.05
41947;BME280;27638;42.184;24.848;2023-04-01T08:09:55;98765.06;;;13.56;74.01
41947;BME280;27638;42.184;24.848;2023-04-01T08:22:39;98745.81;;;13.73;73.35
41947;BME280;27638;42.184;24.848;2023-04-01T08:25:13;98737.84;;;13.67;73.40
41947;BME280;27638;42.184;24.848;2023-04-01T08:27:44;98741.72;;;13.78;74.17
41947;BME280;27638;42.184;24.848;2023-04-01T08:33:01;98729.44;;;13.70;73.56
41947;BME280;27638;42.184;24.848;2023-04-01T08:35:36;98719.19;;;13.73;74.42
41947;BME280;27638;42.184;24.848;2023-04-01T08:38:11;98724.31;;;13.68;73.79
41947;BME280;27638;42.184;24.848;2023-04-01T08:40:59;98722.09;;;13.65;74.35
41947;BME280;27638;42.184;24.848;2023-04-01T08:46:56;98703.22;;;13.87;74.04
41947;BME280;27638;42.184;24.848;2023-04-01T08:52:33;98691.50;;;14.01;73.06
41947;BME280;27638;42.184;24.848;2023-04-01T08:58:11;98679.19;;;14.06;72.60
41947;BME280;27638;42.184;24.848;2023-04-01T09:00:53;98674.66;;;14.14;72.28
41947;BME280;27638;42.184;24.848;2023-04-01T09:17:51;98648.56;;;14.80;70.19
41947;BME280;27638;42.184;24.848;2023-04-01T09:20:44;98633.06;;;14.95;69.41
41947;BME280;27638;42.184;24.848;2023-04-01T09:23:19;98627.91;;;15.00;70.24
41947;BME280;27638;42.184;24.848;2023-04-01T09:34:53;98603.41;;;15.10;69.10
41947;BME280;27638;42.184;24.848;2023-04-01T09:38:14;98592.41;;;15.25;68.15
41947;BME280;27638;42.184;24.848;2023-04-01T09:43:33;98584.13;;;15.51;66.78
41947;BME280;27638;42.184;24.848;2023-04-01T09:51:04;98597.44;;;15.94;66.25
41947;BME280;27638;42.184;24.848;2023-04-01T09:53:47;98594.25;;;16.04;65.32
41947;BME280;27638;42.184;24.848;2023-04-01T09:56:26;98586.06;;;16.17;65.44
41947;BME280;27638;42.184;24.848;2023-04-01T10:22:10;98522.72;;;16.48;64.19
41947;BME280;27638;42.184;24.848;2023-04-01T11:11:53;98388.41;;;17.11;61.97
41947;BME280;27638;42.184;24.848;2023-04-01T11:33:35;98372.50;;;17.61;63.24
41947;BME280;27638;42.184;24.848;2023-04-01T11:42:10;98345.66;;;17.28;63.39
41947;BME280;27638;42.184;24.848;2023-04-01T12:07:21;98293.50;;;17.59;63.87
41947;BME280;27638;42.184;24.848;2023-04-01T12:10:02;98302.34;;;17.59;63.73
41947;BME280;27638;42.184;24.848;2023-04-01T12:17:46;98289.19;;;17.58;63.05
41947;BME280;27638;42.184;24.848;2023-04-01T12:28:39;98263.63;;;17.33;63.50
41947;BME280;27638;42.184;24.848;2023-04-01T12:33:48;98238.75;;;17.33;64.63
41947;BME280;27638;42.184;24.848;2023-04-01T12:55:49;98209.97;;;17.90;62.82
41947;BME280;27638;42.184;24.848;2023-04-01T13:10:15;98195.75;;;18.28;61.57
41947;BME280;27638;42.184;24.848;2023-04-01T13:25:55;98174.38;;;18.33;61.98
41947;BME280;27638;42.184;24.848;2023-04-01T13:28:30;98183.28;;;18.39;62.59
41947;BME280;27638;42.184;24.848;2023-04-01T13:33:53;98189.91;;;18.31;61.51
41947;BME280;27638;42.184;24.848;2023-04-01T13:36:45;98216.00;;;18.19;61.65
41947;BME280;27638;42.184;24.848;2023-04-01T13:44:56;98310.75;;;17.51;60.31
41947;BME280;27638;42.184;24.848;2023-04-01T13:58:59;98347.19;;;16.83;61.39
41947;BME280;27638;42.184;24.848;2023-04-01T14:13:23;98436.72;;;16.04;74.85
41947;BME280;27638;42.184;24.848;2023-04-01T14:18:52;98433.56;;;15.95;79.53
41947;BME280;27638;42.184;24.848;2023-04-01T14:24:19;98438.88;;;15.95;76.85
41947;BME280;27638;42.184;24.848;2023-04-01T14:49:02;98397.63;;;16.56;66.94
41947;BME280;27638;42.184;24.848;2023-04-01T14:51:28;98391.91;;;16.53;66.88
41947;BME280;27638;42.184;24.848;2023-04-01T14:56:50;98410.03;;;16.39;74.22
41947;BME280;27638;42.184;24.848;2023-04-01T15:18:09;98399.78;;;16.01;83.68
41947;BME280;27638;42.184;24.848;2023-04-01T15:29:01;98394.19;;;15.91;81.76
41947;BME280;27638;42.184;24.848;2023-04-01T15:34:40;98395.91;;;15.85;80.03
41947;BME280;27638;42.184;24.848;2023-04-01T15:45:39;98378.38;;;15.78;78.64
41947;BME280;27638;42.184;24.848;2023-04-01T15:48:27;98387.44;;;15.77;78.23
41947;BME280;27638;42.184;24.848;2023-04-01T15:51:54;98388.47;;;15.76;77.00
41947;BME280;27638;42.184;24.848;2023-04-01T16:05:30;98393.72;;;15.82;74.82
41947;BME280;27638;42.184;24.848;2023-04-01T16:14:03;98408.91;;;15.82;75.89
41947;BME280;27638;42.184;24.848;2023-04-01T16:19:41;98416.09;;;15.81;75.79
41947;BME280;27638;42.184;24.848;2023-04-01T16:22:19;98426.19;;;15.79;76.27
41947;BME280;27638;42.184;24.848;2023-04-01T16:27:22;98447.06;;;15.71;77.70
41947;BME280;27638;42.184;24.848;2023-04-01T16:29:57;98456.78;;;15.65;78.41
41947;BME280;27638;42.184;24.848;2023-04-01T16:35:35;98446.34;;;15.63;77.94
41947;BME280;27638;42.184;24.848;2023-04-01T16:54:54;98459.22;;;15.30;71.98
41947;BME280;27638;42.184;24.848;2023-04-01T16:57:30;98455.50;;;15.31;72.54
41947;BME280;27638;42.184;24.848;2023-04-01T17:02:42;98450.13;;;15.01;79.01
41947;BME280;27638;42.184;24.848;2023-04-01T17:05:13;98462.47;;;14.95;81.13
41947;BME280;27638;42.184;24.848;2023-04-01T17:07:49;98450.47;;;14.86;83.99
41947;BME280;27638;42.184;24.848;2023-04-01T17:11:12;98445.38;;;14.85;85.45
41947;BME280;27638;42.184;24.848;2023-04-01T17:13:41;98446.56;;;14.89;85.84
41947;BME280;27638;42.184;24.848;2023-04-01T17:27:51;98437.66;;;15.13;84.22
41947;BME280;27638;42.184;24.848;2023-04-01T17:30:45;98448.94;;;15.15;84.50
41947;BME280;27638;42.184;24.848;2023-04-01T17:41:25;98506.47;;;15.05;82.36
41947;BME280;27638;42.184;24.848;2023-04-01T17:47:19;98521.34;;;14.69;85.71
41947;BME280;27638;42.184;24.848;2023-04-01T17:58:21;98628.59;;;13.55;94.94
41947;BME280;27638;42.184;24.848;2023-04-01T18:04:05;98615.91;;;13.57;86.51
41947;BME280;27638;42.184;24.848;2023-04-01T18:09:25;98642.22;;;13.85;78.81
41947;BME280;27638;42.184;24.848;2023-04-01T18:12:24;98647.50;;;13.98;75.73
41947;BME280;27638;42.184;24.848;2023-04-01T18:21:03;98659.56;;;14.01;73.51
41947;BME280;27638;42.184;24.848;2023-04-01T18:23:41;98664.06;;;14.00;71.83
41947;BME280;27638;42.184;24.848;2023-04-01T18:26:13;98672.28;;;13.99;71.85
41947;BME280;27638;42.184;24.848;2023-04-01T18:28:52;98682.50;;;13.95;70.37
41947;BME280;27638;42.184;24.848;2023-04-01T18:31:24;98673.31;;;13.91;69.63
41947;BME280;27638;42.184;24.848;2023-04-01T18:33:58;98666.63;;;13.62;69.02
41947;BME280;27638;42.184;24.848;2023-04-01T18:36:49;98654.97;;;13.70;68.94
41947;BME280;27638;42.184;24.848;2023-04-01T18:39:39;98652.91;;;13.72;69.21
41947;BME280;27638;42.184;24.848;2023-04-01T18:45:27;98664.75;;;13.76;69.45
41947;BME280;27638;42.184;24.848;2023-04-01T18:48:17;98656.56;;;13.84;68.58
41947;BME280;27638;42.184;24.848;2023-04-01T18:50:51;98668.41;;;13.88;67.66
41947;BME280;27638;42.184;24.848;2023-04-01T18:53:39;98674.97;;;13.86;68.24
41947;BME280;27638;42.184;24.848;2023-04-01T18:56:10;98686.22;;;13.88;68.63
41947;BME280;27638;42.184;24.848;2023-04-01T18:58:52;98688.69;;;13.83;69.59
41947;BME280;27638;42.184;24.848;2023-04-01T19:01:27;98703.03;;;13.75;68.03
41947;BME280;27638;42.184;24.848;2023-04-01T19:06:56;98709.19;;;13.62;69.62
41947;BME280;27638;42.184;24.848;2023-04-01T19:09:44;98716.16;;;13.63;69.56
41947;BME280;27638;42.184;24.848;2023-04-01T19:21:12;98720.03;;;13.48;70.19
41947;BME280;27638;42.184;24.848;2023-04-01T19:26:39;98736.38;;;13.51;68.96
41947;BME280;27638;42.184;24.848;2023-04-01T20:06:06;98769.31;;;13.50;67.82
41947;BME280;27638;42.184;24.848;2023-04-01T20:17:01;98784.94;;;12.86;67.80
41947;BME280;27638;42.184;24.848;2023-04-01T20:24:51;98788.28;;;12.53;67.56
41947;BME280;27638;42.184;24.848;2023-04-01T20:27:24;98788.50;;;12.58;67.54
41947;BME280;27638;42.184;24.848;2023-04-01T20:35:25;98788.59;;;12.37;68.17
41947;BME280;27638;42.184;24.848;2023-04-01T20:40:49;98781.81;;;12.28;68.08
41947;BME280;27638;42.184;24.848;2023-04-01T20:43:56;98783.75;;;12.12;68.62
41947;BME280;27638;42.184;24.848;2023-04-01T20:46:48;98794.19;;;12.14;67.87
41947;BME280;27638;42.184;24.848;2023-04-01T20:49:32;98794.34;;;12.06;68.21
41947;BME280;27638;42.184;24.848;2023-04-01T20:52:23;98791.50;;;12.07;67.76
41947;BME280;27638;42.184;24.848;2023-04-01T20:55:05;98800.66;;;12.05;67.68
41947;BME280;27638;42.184;24.848;2023-04-01T20:57:53;98804.56;;;12.09;67.07
41947;BME280;27638;42.184;24.848;2023-04-01T21:09:02;98825.44;;;12.19;67.57
41947;BME280;27638;42.184;24.848;2023-04-01T21:11:51;98821.31;;;12.09;68.09
41947;BME280;27638;42.184;24.848;2023-04-01T21:25:21;98840.50;;;11.83;70.53
41947;BME280;27638;42.184;24.848;2023-04-01T21:41:06;98853.06;;;11.96;68.75
41947;BME280;27638;42.184;24.848;2023-04-01T21:57:35;98880.06;;;12.06;68.44
41947;BME280;27638;42.184;24.848;2023-04-01T22:00:09;98878.19;;;12.00;68.19
41947;BME280;27638;42.184;24.848;2023-04-01T22:02:45;98866.06;;;11.91;66.97
41947;BME280;27638;42.184;24.848;2023-04-01T22:05:24;98873.84;;;11.93;67.21
41947;BME280;27638;42.184;24.848;2023-04-01T22:10:48;98883.09;;;12.03;68.45
41947;BME280;27638;42.184;24.848;2023-04-01T22:13:19;98884.88;;;11.96;68.45
41947;BME280;27638;42.184;24.848;2023-04-01T22:18:39;98888.06;;;11.85;69.28
41947;BME280;27638;42.184;24.848;2023-04-01T22:21:24;98887.66;;;11.88;69.13
41947;BME280;27638;42.184;24.848;2023-04-01T22:24:15;98887.09;;;11.93;68.47
41947;BME280;27638;42.184;24.848;2023-04-01T22:29:40;98897.72;;;11.93;68.57
41947;BME280;27638;42.184;24.848;2023-04-01T22:32:11;98898.34;;;11.95;68.64
41947;BME280;27638;42.184;24.848;2023-04-01T22:35:04;98883.63;;;11.92;69.05
41947;BME280;27638;42.184;24.848;2023-04-01T22:37:48;98894.28;;;11.99;68.51
41947;BME280;27638;42.184;24.848;2023-04-01T22:43:45;98907.66;;;12.12;68.00
41947;BME280;27638;42.184;24.848;2023-04-01T22:46:03;98913.75;;;12.06;67.88
41947;BME280;27638;42.184;24.848;2023-04-01T22:48:41;98924.94;;;11.80;68.91
41947;BME280;27638;42.184;24.848;2023-04-01T22:51:18;98915.31;;;12.00;68.48
41947;BME280;27638;42.184;24.848;2023-04-01T22:56:57;98914.75;;;12.05;67.59
41947;BME280;27638;42.184;24.848;2023-04-01T23:02:27;98912.50;;;11.80;69.00
41947;BME280;27638;42.184;24.848;2023-04-01T23:04:56;98902.00;;;11.72;69.01
41947;BME280;27638;42.184;24.848;2023-04-01T23:10:41;98908.03;;;11.45;70.45
41947;BME280;27638;42.184;24.848;2023-04-01T23:13:13;98908.13;;;11.37;70.43
41947;BME280;27638;42.184;24.848;2023-04-01T23:15:42;98898.09;;;11.32;71.04
41947;BME280;27638;42.184;24.848;2023-04-01T23:26:35;98893.53;;;11.26;70.78
41947;BME280;27638;42.184;24.848;2023-04-01T23:29:04;98893.97;;;11.30;70.07
41947;BME280;27638;42.184;24.848;2023-04-01T23:31:47;98898.66;;;11.28;70.22
41947;BME280;27638;42.184;24.848;2023-04-01T23:36:44;98910.75;;;11.51;69.45
41947;BME280;27638;42.184;24.848;2023-04-01T23:41:47;98905.19;;;11.46;68.57
41947;BME280;27638;42.184;24.848;2023-04-01T23:44:13;98919.91;;;11.34;69.28
41947;BME280;27638;42.184;24.848;2023-04-01T23:46:40;98927.34;;;11.24;69.56
41947;BME280;27638;42.184;24.848;2023-04-01T23:49:13;98912.34;;;11.31;69.84
41947;BME280;27638;42.184;24.848;2023-04-01T23:51:57;98903.63;;;11.37;68.12
41947;BME280;27638;42.184;24.848;2023-04-01T23:54:29;98899.22;;;11.23;68.25
41947;BME280;27638;42.184;24.848;2023-04-01T23:56:56;98902.50;;;11.25;69.28
41947;BME280;27638;42.184;24.848;2023-04-01T23:59:27;98908.06;;;11.30;68.42
